sensor_id;sensor_type;location;lat;lon;timestamp;P1;durP1;ratioP1;P2;durP2;ratioP2
42964;SDS011;28604;51.204;22.552;2024-02-14T00:00:21;17.60;;;7.25;;
42964;SDS011;28604;51.204;22.552;2024-02-14T00:03:07;15.82;;;5.50;;
42964;SDS011;28604;51.204;22.552;2024-02-14T00:05:33;13.98;;;6.38;;
42964;SDS011;28604;51.204;22.552;2024-02-14T00:07:59;16.00;;;6.47;;
42964;SDS011;28604;51.204;22.552;2024-02-14T00:10:25;18.20;;;6.38;;
42964;SDS011;28604;51.204;22.552;2024-02-14T00:12:51;18.75;;;6.03;;
42964;SDS011;28604;51.204;22.552;2024-02-14T00:15:17;14.05;;;5.60;;
42964;SDS011;28604;51.204;22.552;2024-02-14T00:17:44;13.27;;;6.03;;
42964;SDS011;28604;51.204;22.552;2024-02-14T00:20:10;11.82;;;5.80;;
42964;SDS011;28604;51.204;22.552;2024-02-14T00:22:38;12.18;;;5.22;;
42964;SDS011;28604;51.204;22.552;2024-02-14T00:25:04;14.15;;;5.82;;
42964;SDS011;28604;51.204;22.552;2024-02-14T00:27:30;9.95;;;5.65;;
42964;SDS011;28604;51.204;22.552;2024-02-14T00:29:56;9.15;;;5.25;;
42964;SDS011;28604;51.204;22.552;2024-02-14T00:32:22;13.98;;;6.65;;
42964;SDS011;28604;51.204;22.552;2024-02-14T00:34:48;11.73;;;5.95;;
42964;SDS011;28604;51.204;22.552;2024-02-14T00:37:15;15.50;;;6.63;;
42964;SDS011;28604;51.204;22.552;2024-02-14T00:39:41;13.65;;;6.07;;
42964;SDS011;28604;51.204;22.552;2024-02-14T00:42:07;15.52;;;6.95;;
42964;SDS011;28604;51.204;22.552;2024-02-14T00:44:34;18.85;;;6.47;;
42964;SDS011;28604;51.204;22.552;2024-02-14T00:47:00;23.50;;;8.13;;
42964;SDS011;28604;51.204;22.552;2024-02-14T00:49:27;24.33;;;8.73;;
42964;SDS011;28604;51.204;22.552;2024-02-14T00:51:54;19.70;;;7.65;;
42964;SDS011;28604;51.204;22.552;2024-02-14T00:54:20;18.70;;;6.45;;
42964;SDS011;28604;51.204;22.552;2024-02-14T00:56:46;11.45;;;5.25;;
42964;SDS011;28604;51.204;22.552;2024-02-14T00:59:12;15.27;;;6.28;;
42964;SDS011;28604;51.204;22.552;2024-02-14T01:01:38;13.52;;;6.07;;
42964;SDS011;28604;51.204;22.552;2024-02-14T01:04:04;11.00;;;5.20;;
42964;SDS011;28604;51.204;22.552;2024-02-14T01:06:30;10.23;;;4.57;;
42964;SDS011;28604;51.204;22.552;2024-02-14T01:08:56;14.57;;;5.75;;
42964;SDS011;28604;51.204;22.552;2024-02-14T01:11:23;9.95;;;4.90;;
42964;SDS011;28604;51.204;22.552;2024-02-14T01:13:49;12.95;;;5.88;;
42964;SDS011;28604;51.204;22.552;2024-02-14T01:16:15;8.38;;;4.38;;
42964;SDS011;28604;51.204;22.552;2024-02-14T01:18:41;9.05;;;4.65;;
42964;SDS011;28604;51.204;22.552;2024-02-14T01:21:07;14.20;;;6.05;;
42964;SDS011;28604;51.204;22.552;2024-02-14T01:23:34;9.65;;;4.45;;
42964;SDS011;28604;51.204;22.552;2024-02-14T01:26:01;10.23;;;4.47;;
42964;SDS011;28604;51.204;22.552;2024-02-14T01:28:27;8.93;;;4.53;;
42964;SDS011;28604;51.204;22.552;2024-02-14T01:30:53;7.97;;;4.53;;
42964;SDS011;28604;51.204;22.552;2024-02-14T01:33:19;10.98;;;5.10;;
42964;SDS011;28604;51.204;22.552;2024-02-14T01:35:45;10.07;;;5.05;;
42964;SDS011;28604;51.204;22.552;2024-02-14T01:38:11;15.15;;;6.90;;
42964;SDS011;28604;51.204;22.552;2024-02-14T01:40:38;14.55;;;6.30;;
42964;SDS011;28604;51.204;22.552;2024-02-14T01:43:07;10.27;;;6.03;;
42964;SDS011;28604;51.204;22.552;2024-02-14T01:45:34;15.10;;;7.85;;
42964;SDS011;28604;51.204;22.552;2024-02-14T01:48:00;18.35;;;9.02;;
42964;SDS011;28604;51.204;22.552;2024-02-14T01:50:28;20.23;;;9.05;;
42964;SDS011;28604;51.204;22.552;2024-02-14T01:52:55;18.55;;;8.30;;
42964;SDS011;28604;51.204;22.552;2024-02-14T01:55:24;20.88;;;9.30;;
42964;SDS011;28604;51.204;22.552;2024-02-14T01:57:54;17.08;;;8.75;;
42964;SDS011;28604;51.204;22.552;2024-02-14T02:00:20;17.40;;;8.93;;
42964;SDS011;28604;51.204;22.552;2024-02-14T02:02:46;21.40;;;8.65;;
42964;SDS011;28604;51.204;22.552;2024-02-14T02:05:19;20.33;;;8.98;;
42964;SDS011;28604;51.204;22.552;2024-02-14T02:07:45;17.55;;;8.38;;
42964;SDS011;28604;51.204;22.552;2024-02-14T02:10:14;19.55;;;8.77;;
42964;SDS011;28604;51.204;22.552;2024-02-14T02:12:40;16.58;;;8.02;;
42964;SDS011;28604;51.204;22.552;2024-02-14T02:15:07;17.10;;;8.05;;
42964;SDS011;28604;51.204;22.552;2024-02-14T02:17:39;19.13;;;9.65;;
42964;SDS011;28604;51.204;22.552;2024-02-14T02:20:05;18.67;;;8.13;;
42964;SDS011;28604;51.204;22.552;2024-02-14T02:22:34;15.32;;;7.60;;
42964;SDS011;28604;51.204;22.552;2024-02-14T02:25:02;12.77;;;7.38;;
42964;SDS011;28604;51.204;22.552;2024-02-14T02:27:28;18.10;;;8.50;;
42964;SDS011;28604;51.204;22.552;2024-02-14T02:29:54;15.20;;;7.68;;
42964;SDS011;28604;51.204;22.552;2024-02-14T02:32:20;19.25;;;8.88;;
42964;SDS011;28604;51.204;22.552;2024-02-14T02:34:46;12.40;;;7.00;;
42964;SDS011;28604;51.204;22.552;2024-02-14T02:37:12;15.73;;;9.40;;
42964;SDS011;28604;51.204;22.552;2024-02-14T02:39:39;17.05;;;8.45;;
42964;SDS011;28604;51.204;22.552;2024-02-14T02:42:04;17.25;;;7.95;;
42964;SDS011;28604;51.204;22.552;2024-02-14T02:44:31;18.50;;;8.15;;
42964;SDS011;28604;51.204;22.552;2024-02-14T02:46:57;22.45;;;7.97;;
42964;SDS011;28604;51.204;22.552;2024-02-14T02:49:23;14.88;;;7.57;;
42964;SDS011;28604;51.204;22.552;2024-02-14T02:51:49;13.93;;;7.18;;
42964;SDS011;28604;51.204;22.552;2024-02-14T02:54:15;14.10;;;7.03;;
42964;SDS011;28604;51.204;22.552;2024-02-14T02:56:41;20.35;;;8.88;;
42964;SDS011;28604;51.204;22.552;2024-02-14T02:59:07;16.55;;;8.40;;
42964;SDS011;28604;51.204;22.552;2024-02-14T03:01:36;19.08;;;8.43;;
42964;SDS011;28604;51.204;22.552;2024-02-14T03:04:03;21.45;;;8.70;;
42964;SDS011;28604;51.204;22.552;2024-02-14T03:06:29;20.17;;;8.13;;
42964;SDS011;28604;51.204;22.552;2024-02-14T03:08:56;22.85;;;8.80;;
42964;SDS011;28604;51.204;22.552;2024-02-14T03:11:22;20.02;;;9.00;;
42964;SDS011;28604;51.204;22.552;2024-02-14T03:13:48;14.82;;;7.97;;
42964;SDS011;28604;51.204;22.552;2024-02-14T03:16:15;21.05;;;7.80;;
42964;SDS011;28604;51.204;22.552;2024-02-14T03:18:43;17.30;;;9.15;;
42964;SDS011;28604;51.204;22.552;2024-02-14T03:21:09;16.25;;;8.02;;
42964;SDS011;28604;51.204;22.552;2024-02-14T03:23:37;15.68;;;8.65;;
42964;SDS011;28604;51.204;22.552;2024-02-14T03:26:05;18.20;;;8.48;;
42964;SDS011;28604;51.204;22.552;2024-02-14T03:28:33;16.27;;;8.93;;
42964;SDS011;28604;51.204;22.552;2024-02-14T03:30:59;17.60;;;8.43;;
42964;SDS011;28604;51.204;22.552;2024-02-14T03:33:25;15.90;;;8.40;;
42964;SDS011;28604;51.204;22.552;2024-02-14T03:35:51;21.15;;;9.45;;
42964;SDS011;28604;51.204;22.552;2024-02-14T03:38:27;22.67;;;9.52;;
42964;SDS011;28604;51.204;22.552;2024-02-14T03:40:53;21.20;;;9.48;;
42964;SDS011;28604;51.204;22.552;2024-02-14T03:43:20;20.25;;;9.27;;
42964;SDS011;28604;51.204;22.552;2024-02-14T03:45:47;15.13;;;9.13;;
42964;SDS011;28604;51.204;22.552;2024-02-14T03:48:13;15.13;;;8.82;;
42964;SDS011;28604;51.204;22.552;2024-02-14T03:50:39;17.83;;;9.52;;
42964;SDS011;28604;51.204;22.552;2024-02-14T03:53:05;25.48;;;10.93;;
42964;SDS011;28604;51.204;22.552;2024-02-14T03:55:31;16.80;;;8.65;;
42964;SDS011;28604;51.204;22.552;2024-02-14T03:57:57;18.77;;;9.32;;
42964;SDS011;28604;51.204;22.552;2024-02-14T04:00:23;21.35;;;9.52;;
42964;SDS011;28604;51.204;22.552;2024-02-14T04:02:49;17.13;;;8.95;;
42964;SDS011;28604;51.204;22.552;2024-02-14T04:05:17;20.65;;;10.55;;
42964;SDS011;28604;51.204;22.552;2024-02-14T04:07:44;20.20;;;10.93;;
42964;SDS011;28604;51.204;22.552;2024-02-14T04:10:14;20.92;;;10.10;;
42964;SDS011;28604;51.204;22.552;2024-02-14T04:12:40;20.20;;;10.02;;
42964;SDS011;28604;51.204;22.552;2024-02-14T04:15:06;19.75;;;10.82;;
42964;SDS011;28604;51.204;22.552;2024-02-14T04:17:32;20.27;;;9.93;;
42964;SDS011;28604;51.204;22.552;2024-02-14T04:19:58;23.35;;;11.25;;
42964;SDS011;28604;51.204;22.552;2024-02-14T04:22:24;16.63;;;9.50;;
42964;SDS011;28604;51.204;22.552;2024-02-14T04:24:50;18.15;;;8.93;;
42964;SDS011;28604;51.204;22.552;2024-02-14T04:27:17;19.00;;;9.60;;
42964;SDS011;28604;51.204;22.552;2024-02-14T04:29:46;18.52;;;10.15;;
42964;SDS011;28604;51.204;22.552;2024-02-14T04:32:13;18.42;;;9.35;;
42964;SDS011;28604;51.204;22.552;2024-02-14T04:34:39;19.65;;;9.38;;
42964;SDS011;28604;51.204;22.552;2024-02-14T04:37:07;20.20;;;9.90;;
42964;SDS011;28604;51.204;22.552;2024-02-14T04:39:37;17.33;;;8.15;;
42964;SDS011;28604;51.204;22.552;2024-02-14T04:42:04;20.75;;;10.25;;
42964;SDS011;28604;51.204;22.552;2024-02-14T04:44:31;15.77;;;9.82;;
42964;SDS011;28604;51.204;22.552;2024-02-14T04:46:57;17.45;;;9.43;;
42964;SDS011;28604;51.204;22.552;2024-02-14T04:49:24;19.70;;;11.35;;
42964;SDS011;28604;51.204;22.552;2024-02-14T04:51:51;23.98;;;12.00;;
42964;SDS011;28604;51.204;22.552;2024-02-14T04:54:17;23.33;;;11.15;;
42964;SDS011;28604;51.204;22.552;2024-02-14T04:56:43;21.60;;;10.32;;
42964;SDS011;28604;51.204;22.552;2024-02-14T04:59:10;21.42;;;9.52;;
42964;SDS011;28604;51.204;22.552;2024-02-14T05:01:37;20.10;;;9.40;;
42964;SDS011;28604;51.204;22.552;2024-02-14T05:04:05;20.83;;;10.05;;
42964;SDS011;28604;51.204;22.552;2024-02-14T05:06:32;26.33;;;11.20;;
42964;SDS011;28604;51.204;22.552;2024-02-14T05:08:58;31.77;;;11.50;;
42964;SDS011;28604;51.204;22.552;2024-02-14T05:11:25;23.10;;;9.98;;
42964;SDS011;28604;51.204;22.552;2024-02-14T05:13:50;24.95;;;10.63;;
42964;SDS011;28604;51.204;22.552;2024-02-14T05:16:20;22.92;;;10.65;;
42964;SDS011;28604;51.204;22.552;2024-02-14T05:18:46;17.40;;;9.10;;
42964;SDS011;28604;51.204;22.552;2024-02-14T05:21:13;21.73;;;9.65;;
42964;SDS011;28604;51.204;22.552;2024-02-14T05:23:39;23.10;;;10.70;;
42964;SDS011;28604;51.204;22.552;2024-02-14T05:26:05;24.15;;;11.13;;
42964;SDS011;28604;51.204;22.552;2024-02-14T05:28:31;22.52;;;11.35;;
42964;SDS011;28604;51.204;22.552;2024-02-14T05:30:59;21.30;;;10.95;;
42964;SDS011;28604;51.204;22.552;2024-02-14T05:33:25;20.20;;;11.00;;
42964;SDS011;28604;51.204;22.552;2024-02-14T05:35:52;24.90;;;10.45;;
42964;SDS011;28604;51.204;22.552;2024-02-14T05:38:18;21.48;;;10.85;;
42964;SDS011;28604;51.204;22.552;2024-02-14T05:40:47;19.10;;;10.60;;
42964;SDS011;28604;51.204;22.552;2024-02-14T05:43:14;23.85;;;10.93;;
42964;SDS011;28604;51.204;22.552;2024-02-14T05:45:41;18.20;;;10.18;;
42964;SDS011;28604;51.204;22.552;2024-02-14T05:48:07;20.45;;;9.93;;
42964;SDS011;28604;51.204;22.552;2024-02-14T05:50:33;21.98;;;11.35;;
42964;SDS011;28604;51.204;22.552;2024-02-14T05:52:59;23.60;;;12.25;;
42964;SDS011;28604;51.204;22.552;2024-02-14T05:55:26;23.58;;;10.90;;
42964;SDS011;28604;51.204;22.552;2024-02-14T05:57:52;23.60;;;10.45;;
42964;SDS011;28604;51.204;22.552;2024-02-14T06:00:19;19.08;;;10.23;;
42964;SDS011;28604;51.204;22.552;2024-02-14T06:02:48;23.02;;;11.02;;
42964;SDS011;28604;51.204;22.552;2024-02-14T06:05:15;24.77;;;10.80;;
42964;SDS011;28604;51.204;22.552;2024-02-14T06:07:41;19.55;;;10.10;;
42964;SDS011;28604;51.204;22.552;2024-02-14T06:10:10;22.10;;;11.13;;
42964;SDS011;28604;51.204;22.552;2024-02-14T06:12:36;19.88;;;11.25;;
42964;SDS011;28604;51.204;22.552;2024-02-14T06:15:03;20.13;;;10.20;;
42964;SDS011;28604;51.204;22.552;2024-02-14T06:17:29;19.23;;;11.45;;
42964;SDS011;28604;51.204;22.552;2024-02-14T06:19:55;18.85;;;10.70;;
42964;SDS011;28604;51.204;22.552;2024-02-14T06:22:22;17.40;;;9.90;;
42964;SDS011;28604;51.204;22.552;2024-02-14T06:24:50;15.63;;;10.18;;
42964;SDS011;28604;51.204;22.552;2024-02-14T06:27:16;18.80;;;10.75;;
42964;SDS011;28604;51.204;22.552;2024-02-14T06:29:43;19.35;;;11.20;;
42964;SDS011;28604;51.204;22.552;2024-02-14T06:32:13;18.98;;;10.00;;
42964;SDS011;28604;51.204;22.552;2024-02-14T06:34:40;16.55;;;10.38;;
42964;SDS011;28604;51.204;22.552;2024-02-14T06:37:05;21.88;;;10.25;;
42964;SDS011;28604;51.204;22.552;2024-02-14T06:39:32;25.23;;;10.05;;
42964;SDS011;28604;51.204;22.552;2024-02-14T06:41:57;13.50;;;8.48;;
42964;SDS011;28604;51.204;22.552;2024-02-14T06:44:24;24.17;;;9.65;;
42964;SDS011;28604;51.204;22.552;2024-02-14T06:46:50;18.35;;;9.30;;
42964;SDS011;28604;51.204;22.552;2024-02-14T06:49:16;22.38;;;9.00;;
42964;SDS011;28604;51.204;22.552;2024-02-14T06:51:42;19.52;;;10.60;;
42964;SDS011;28604;51.204;22.552;2024-02-14T06:54:09;16.35;;;9.48;;
42964;SDS011;28604;51.204;22.552;2024-02-14T06:56:35;22.83;;;12.52;;
42964;SDS011;28604;51.204;22.552;2024-02-14T06:59:01;19.73;;;9.73;;
42964;SDS011;28604;51.204;22.552;2024-02-14T07:01:29;18.35;;;10.05;;
42964;SDS011;28604;51.204;22.552;2024-02-14T07:03:55;16.77;;;9.30;;
42964;SDS011;28604;51.204;22.552;2024-02-14T07:06:21;26.17;;;10.35;;
42964;SDS011;28604;51.204;22.552;2024-02-14T07:08:48;19.50;;;9.05;;
42964;SDS011;28604;51.204;22.552;2024-02-14T07:11:14;16.13;;;8.00;;
42964;SDS011;28604;51.204;22.552;2024-02-14T07:13:42;15.32;;;8.05;;
42964;SDS011;28604;51.204;22.552;2024-02-14T07:16:09;20.05;;;8.27;;
42964;SDS011;28604;51.204;22.552;2024-02-14T07:18:35;15.82;;;7.60;;
42964;SDS011;28604;51.204;22.552;2024-02-14T07:21:01;22.02;;;9.65;;
42964;SDS011;28604;51.204;22.552;2024-02-14T07:23:27;17.33;;;8.10;;
42964;SDS011;28604;51.204;22.552;2024-02-14T07:25:53;18.30;;;7.75;;
42964;SDS011;28604;51.204;22.552;2024-02-14T07:28:19;19.55;;;9.32;;
42964;SDS011;28604;51.204;22.552;2024-02-14T07:30:45;17.23;;;9.13;;
42964;SDS011;28604;51.204;22.552;2024-02-14T07:33:11;19.30;;;9.60;;
42964;SDS011;28604;51.204;22.552;2024-02-14T07:35:38;22.10;;;11.02;;
42964;SDS011;28604;51.204;22.552;2024-02-14T07:38:04;23.83;;;11.38;;
42964;SDS011;28604;51.204;22.552;2024-02-14T07:40:30;23.98;;;10.93;;
42964;SDS011;28604;51.204;22.552;2024-02-14T07:42:57;19.23;;;9.00;;
42964;SDS011;28604;51.204;22.552;2024-02-14T07:45:24;16.98;;;8.25;;
42964;SDS011;28604;51.204;22.552;2024-02-14T07:48:15;15.93;;;8.50;;
42964;SDS011;28604;51.204;22.552;2024-02-14T07:51:18;14.02;;;7.95;;
42964;SDS011;28604;51.204;22.552;2024-02-14T07:54:07;11.68;;;6.50;;
42964;SDS011;28604;51.204;22.552;2024-02-14T07:56:52;11.82;;;6.97;;
42964;SDS011;28604;51.204;22.552;2024-02-14T07:59:39;15.88;;;5.95;;
42964;SDS011;28604;51.204;22.552;2024-02-14T08:02:07;14.45;;;5.65;;
42964;SDS011;28604;51.204;22.552;2024-02-14T08:04:33;14.20;;;5.07;;
42964;SDS011;28604;51.204;22.552;2024-02-14T08:06:59;15.52;;;6.53;;
42964;SDS011;28604;51.204;22.552;2024-02-14T08:09:25;13.10;;;5.45;;
42964;SDS011;28604;51.204;22.552;2024-02-14T08:11:51;14.02;;;6.68;;
42964;SDS011;28604;51.204;22.552;2024-02-14T08:14:18;13.98;;;6.20;;
42964;SDS011;28604;51.204;22.552;2024-02-14T08:16:44;8.00;;;5.13;;
42964;SDS011;28604;51.204;22.552;2024-02-14T08:19:10;13.00;;;5.18;;
42964;SDS011;28604;51.204;22.552;2024-02-14T08:21:36;9.70;;;4.95;;
42964;SDS011;28604;51.204;22.552;2024-02-14T08:24:02;17.10;;;5.15;;
42964;SDS011;28604;51.204;22.552;2024-02-14T08:26:29;9.85;;;4.68;;
42964;SDS011;28604;51.204;22.552;2024-02-14T08:28:57;10.43;;;4.53;;
42964;SDS011;28604;51.204;22.552;2024-02-14T08:31:23;9.57;;;4.40;;
42964;SDS011;28604;51.204;22.552;2024-02-14T08:33:49;12.85;;;4.80;;
42964;SDS011;28604;51.204;22.552;2024-02-14T08:36:16;6.65;;;4.18;;
42964;SDS011;28604;51.204;22.552;2024-02-14T08:38:44;15.35;;;5.40;;
42964;SDS011;28604;51.204;22.552;2024-02-14T08:41:10;8.00;;;4.40;;
42964;SDS011;28604;51.204;22.552;2024-02-14T08:43:38;10.75;;;5.15;;
42964;SDS011;28604;51.204;22.552;2024-02-14T08:46:08;10.95;;;4.97;;
42964;SDS011;28604;51.204;22.552;2024-02-14T08:48:36;10.73;;;4.93;;
42964;SDS011;28604;51.204;22.552;2024-02-14T08:51:07;10.23;;;4.90;;
42964;SDS011;28604;51.204;22.552;2024-02-14T08:53:35;13.70;;;5.20;;
42964;SDS011;28604;51.204;22.552;2024-02-14T08:56:01;7.55;;;4.40;;
42964;SDS011;28604;51.204;22.552;2024-02-14T08:58:28;10.02;;;4.88;;
42964;SDS011;28604;51.204;22.552;2024-02-14T09:00:54;10.68;;;5.90;;
42964;SDS011;28604;51.204;22.552;2024-02-14T09:03:20;10.43;;;4.43;;
42964;SDS011;28604;51.204;22.552;2024-02-14T09:05:46;9.43;;;4.75;;
42964;SDS011;28604;51.204;22.552;2024-02-14T09:08:13;14.13;;;4.10;;
42964;SDS011;28604;51.204;22.552;2024-02-14T09:10:39;7.72;;;4.18;;
42964;SDS011;28604;51.204;22.552;2024-02-14T09:13:05;9.43;;;2.63;;
42964;SDS011;28604;51.204;22.552;2024-02-14T09:15:33;11.68;;;5.40;;
42964;SDS011;28604;51.204;22.552;2024-02-14T09:17:59;5.20;;;3.70;;
42964;SDS011;28604;51.204;22.552;2024-02-14T09:20:29;8.50;;;2.80;;
42964;SDS011;28604;51.204;22.552;2024-02-14T09:22:55;7.15;;;2.38;;
42964;SDS011;28604;51.204;22.552;2024-02-14T09:25:23;8.95;;;2.15;;
42964;SDS011;28604;51.204;22.552;2024-02-14T09:27:50;4.78;;;2.03;;
42964;SDS011;28604;51.204;22.552;2024-02-14T09:30:17;7.03;;;2.17;;
42964;SDS011;28604;51.204;22.552;2024-02-14T09:32:43;6.47;;;2.03;;
42964;SDS011;28604;51.204;22.552;2024-02-14T09:35:10;7.30;;;2.05;;
42964;SDS011;28604;51.204;22.552;2024-02-14T09:37:36;5.45;;;2.38;;
42964;SDS011;28604;51.204;22.552;2024-02-14T09:40:05;3.50;;;2.15;;
42964;SDS011;28604;51.204;22.552;2024-02-14T09:42:38;4.25;;;2.00;;
42964;SDS011;28604;51.204;22.552;2024-02-14T09:45:08;3.95;;;1.30;;
42964;SDS011;28604;51.204;22.552;2024-02-14T09:47:34;4.00;;;1.50;;
42964;SDS011;28604;51.204;22.552;2024-02-14T09:50:03;2.83;;;1.40;;
42964;SDS011;28604;51.204;22.552;2024-02-14T09:52:33;5.05;;;1.23;;
42964;SDS011;28604;51.204;22.552;2024-02-14T09:55:00;8.88;;;1.27;;
42964;SDS011;28604;51.204;22.552;2024-02-14T09:57:29;6.15;;;1.38;;
42964;SDS011;28604;51.204;22.552;2024-02-14T09:59:56;6.40;;;2.17;;
42964;SDS011;28604;51.204;22.552;2024-02-14T10:02:22;4.50;;;1.80;;
42964;SDS011;28604;51.204;22.552;2024-02-14T10:04:48;5.18;;;1.50;;
42964;SDS011;28604;51.204;22.552;2024-02-14T10:07:14;3.58;;;1.50;;
42964;SDS011;28604;51.204;22.552;2024-02-14T10:09:40;4.82;;;1.40;;
42964;SDS011;28604;51.204;22.552;2024-02-14T10:12:07;2.20;;;0.70;;
42964;SDS011;28604;51.204;22.552;2024-02-14T10:14:34;2.22;;;1.25;;
42964;SDS011;28604;51.204;22.552;2024-02-14T10:17:02;5.97;;;1.10;;
42964;SDS011;28604;51.204;22.552;2024-02-14T10:19:33;4.00;;;1.33;;
42964;SDS011;28604;51.204;22.552;2024-02-14T10:21:59;5.30;;;1.33;;
42964;SDS011;28604;51.204;22.552;2024-02-14T10:24:28;4.07;;;1.30;;
42964;SDS011;28604;51.204;22.552;2024-02-14T10:26:56;4.72;;;1.17;;
42964;SDS011;28604;51.204;22.552;2024-02-14T10:29:25;3.75;;;1.00;;
42964;SDS011;28604;51.204;22.552;2024-02-14T10:31:52;3.72;;;1.50;;
42964;SDS011;28604;51.204;22.552;2024-02-14T10:34:19;4.80;;;1.45;;
42964;SDS011;28604;51.204;22.552;2024-02-14T10:36:51;5.47;;;1.48;;
42964;SDS011;28604;51.204;22.552;2024-02-14T10:39:19;3.33;;;1.27;;
42964;SDS011;28604;51.204;22.552;2024-02-14T10:41:45;5.43;;;1.15;;
42964;SDS011;28604;51.204;22.552;2024-02-14T10:44:11;4.97;;;1.85;;
42964;SDS011;28604;51.204;22.552;2024-02-14T10:46:38;1.63;;;0.73;;
42964;SDS011;28604;51.204;22.552;2024-02-14T10:49:06;3.17;;;1.30;;
42964;SDS011;28604;51.204;22.552;2024-02-14T10:51:36;2.05;;;0.98;;
42964;SDS011;28604;51.204;22.552;2024-02-14T10:54:05;8.05;;;2.08;;
42964;SDS011;28604;51.204;22.552;2024-02-14T10:56:41;5.30;;;0.98;;
42964;SDS011;28604;51.204;22.552;2024-02-14T10:59:13;4.63;;;2.00;;
42964;SDS011;28604;51.204;22.552;2024-02-14T11:01:43;5.05;;;0.98;;
42964;SDS011;28604;51.204;22.552;2024-02-14T11:04:10;4.38;;;0.95;;
42964;SDS011;28604;51.204;22.552;2024-02-14T11:06:44;3.53;;;1.05;;
42964;SDS011;28604;51.204;22.552;2024-02-14T11:09:14;2.38;;;0.50;;
42964;SDS011;28604;51.204;22.552;2024-02-14T11:11:44;1.30;;;0.40;;
42964;SDS011;28604;51.204;22.552;2024-02-14T11:14:12;3.83;;;0.40;;
42964;SDS011;28604;51.204;22.552;2024-02-14T11:16:41;4.25;;;0.63;;
42964;SDS011;28604;51.204;22.552;2024-02-14T11:19:11;2.03;;;0.63;;
42964;SDS011;28604;51.204;22.552;2024-02-14T11:21:41;2.83;;;0.75;;
42964;SDS011;28604;51.204;22.552;2024-02-14T11:24:12;2.08;;;0.82;;
42964;SDS011;28604;51.204;22.552;2024-02-14T11:26:46;1.25;;;0.80;;
42964;SDS011;28604;51.204;22.552;2024-02-14T11:29:15;2.08;;;0.73;;
42964;SDS011;28604;51.204;22.552;2024-02-14T11:31:44;2.25;;;0.60;;
42964;SDS011;28604;51.204;22.552;2024-02-14T11:34:11;4.35;;;0.70;;
42964;SDS011;28604;51.204;22.552;2024-02-14T11:36:38;4.20;;;1.15;;
42964;SDS011;28604;51.204;22.552;2024-02-14T11:39:07;2.42;;;0.75;;
42964;SDS011;28604;51.204;22.552;2024-02-14T11:41:33;1.58;;;0.80;;
42964;SDS011;28604;51.204;22.552;2024-02-14T11:44:01;4.63;;;0.45;;
42964;SDS011;28604;51.204;22.552;2024-02-14T11:46:31;1.67;;;0.57;;
42964;SDS011;28604;51.204;22.552;2024-02-14T11:49:02;2.47;;;0.63;;
42964;SDS011;28604;51.204;22.552;2024-02-14T11:51:29;1.15;;;0.57;;
42964;SDS011;28604;51.204;22.552;2024-02-14T11:54:00;2.17;;;0.30;;
42964;SDS011;28604;51.204;22.552;2024-02-14T11:56:33;1.52;;;0.45;;
42964;SDS011;28604;51.204;22.552;2024-02-14T11:59:01;1.85;;;0.60;;
42964;SDS011;28604;51.204;22.552;2024-02-14T12:01:32;2.13;;;0.60;;
42964;SDS011;28604;51.204;22.552;2024-02-14T12:04:06;3.00;;;0.60;;
42964;SDS011;28604;51.204;22.552;2024-02-14T12:06:34;3.38;;;0.30;;
42964;SDS011;28604;51.204;22.552;2024-02-14T12:09:02;2.78;;;0.60;;
42964;SDS011;28604;51.204;22.552;2024-02-14T12:11:33;8.00;;;0.98;;
42964;SDS011;28604;51.204;22.552;2024-02-14T12:14:03;1.00;;;0.70;;
42964;SDS011;28604;51.204;22.552;2024-02-14T12:16:30;2.00;;;0.88;;
42964;SDS011;28604;51.204;22.552;2024-02-14T12:19:07;2.63;;;0.90;;
42964;SDS011;28604;51.204;22.552;2024-02-14T12:21:38;3.10;;;0.63;;
42964;SDS011;28604;51.204;22.552;2024-02-14T12:24:08;3.42;;;0.57;;
42964;SDS011;28604;51.204;22.552;2024-02-14T12:26:35;3.60;;;0.77;;
42964;SDS011;28604;51.204;22.552;2024-02-14T12:29:06;4.93;;;0.80;;
42964;SDS011;28604;51.204;22.552;2024-02-14T12:31:34;4.00;;;0.82;;
42964;SDS011;28604;51.204;22.552;2024-02-14T12:34:02;1.58;;;0.80;;
42964;SDS011;28604;51.204;22.552;2024-02-14T12:36:30;1.67;;;0.80;;
42964;SDS011;28604;51.204;22.552;2024-02-14T12:38:58;2.42;;;0.65;;
42964;SDS011;28604;51.204;22.552;2024-02-14T12:41:27;3.88;;;0.80;;
42964;SDS011;28604;51.204;22.552;2024-02-14T12:43:57;3.55;;;0.77;;
42964;SDS011;28604;51.204;22.552;2024-02-14T12:46:24;6.20;;;1.42;;
42964;SDS011;28604;51.204;22.552;2024-02-14T12:48:50;7.40;;;1.00;;
42964;SDS011;28604;51.204;22.552;2024-02-14T12:51:16;2.20;;;0.80;;
42964;SDS011;28604;51.204;22.552;2024-02-14T12:53:42;5.88;;;0.80;;
42964;SDS011;28604;51.204;22.552;2024-02-14T12:56:08;4.20;;;1.20;;
42964;SDS011;28604;51.204;22.552;2024-02-14T12:58:35;1.00;;;0.85;;
42964;SDS011;28604;51.204;22.552;2024-02-14T13:01:02;2.22;;;0.90;;
42964;SDS011;28604;51.204;22.552;2024-02-14T13:03:34;4.25;;;1.48;;
42964;SDS011;28604;51.204;22.552;2024-02-14T13:06:01;2.17;;;0.80;;
42964;SDS011;28604;51.204;22.552;2024-02-14T13:08:27;5.45;;;1.23;;
42964;SDS011;28604;51.204;22.552;2024-02-14T13:10:53;1.65;;;0.60;;
42964;SDS011;28604;51.204;22.552;2024-02-14T13:13:22;2.22;;;1.05;;
42964;SDS011;28604;51.204;22.552;2024-02-14T13:15:48;5.18;;;1.70;;
42964;SDS011;28604;51.204;22.552;2024-02-14T13:18:14;3.65;;;1.80;;
42964;SDS011;28604;51.204;22.552;2024-02-14T13:20:43;4.78;;;2.25;;
42964;SDS011;28604;51.204;22.552;2024-02-14T13:23:10;6.47;;;2.13;;
42964;SDS011;28604;51.204;22.552;2024-02-14T13:25:36;5.28;;;2.20;;
42964;SDS011;28604;51.204;22.552;2024-02-14T13:28:03;6.20;;;2.78;;
42964;SDS011;28604;51.204;22.552;2024-02-14T13:30:30;6.85;;;3.20;;
42964;SDS011;28604;51.204;22.552;2024-02-14T13:32:57;5.03;;;2.72;;
42964;SDS011;28604;51.204;22.552;2024-02-14T13:35:23;7.05;;;3.55;;
42964;SDS011;28604;51.204;22.552;2024-02-14T13:37:49;5.30;;;2.90;;
42964;SDS011;28604;51.204;22.552;2024-02-14T13:40:15;4.25;;;3.47;;
42964;SDS011;28604;51.204;22.552;2024-02-14T13:42:41;13.18;;;4.63;;
42964;SDS011;28604;51.204;22.552;2024-02-14T13:45:07;7.72;;;2.78;;
42964;SDS011;28604;51.204;22.552;2024-02-14T13:47:37;4.30;;;2.53;;
42964;SDS011;28604;51.204;22.552;2024-02-14T13:50:08;5.93;;;2.00;;
42964;SDS011;28604;51.204;22.552;2024-02-14T13:52:35;2.83;;;1.80;;
42964;SDS011;28604;51.204;22.552;2024-02-14T13:55:04;4.55;;;1.77;;
42964;SDS011;28604;51.204;22.552;2024-02-14T13:57:36;3.20;;;1.87;;
42964;SDS011;28604;51.204;22.552;2024-02-14T14:00:04;4.45;;;1.73;;
42964;SDS011;28604;51.204;22.552;2024-02-14T14:02:38;3.72;;;2.05;;
42964;SDS011;28604;51.204;22.552;2024-02-14T14:05:07;4.80;;;2.03;;
42964;SDS011;28604;51.204;22.552;2024-02-14T14:07:35;5.90;;;2.55;;
42964;SDS011;28604;51.204;22.552;2024-02-14T14:10:02;3.03;;;2.17;;
42964;SDS011;28604;51.204;22.552;2024-02-14T14:12:30;4.90;;;1.88;;
42964;SDS011;28604;51.204;22.552;2024-02-14T14:14:57;4.78;;;2.13;;
42964;SDS011;28604;51.204;22.552;2024-02-14T14:17:23;2.05;;;1.65;;
42964;SDS011;28604;51.204;22.552;2024-02-14T14:19:49;3.97;;;1.45;;
42964;SDS011;28604;51.204;22.552;2024-02-14T14:22:16;5.70;;;2.10;;
42964;SDS011;28604;51.204;22.552;2024-02-14T14:24:42;3.97;;;2.22;;
42964;SDS011;28604;51.204;22.552;2024-02-14T14:27:08;6.03;;;1.77;;